LFRV/VNE METAR and TAF weather

Enter ICAO airport designator
Station Type Date Time Source
LFRV METAR 2021/09/16 22:00 UTC NOAA

LFRV 162200Z AUTO VRB01KT 9999 FEW033 SCT042 BKN049 16/14 Q1018


Station Type Date Time Source
LFRV Decoded METAR 2021/09/16 22:00 UTC NOAA

Station name not available
Sep 16, 2021 - 06:00 PM EDT / 2021.09.16 2200 UTC
Wind: Variable at 1 MPH (1 KT):0
Visibility: greater than 7 mile(s):0
Sky conditions: mostly cloudy
Temperature: 60 F (16 C)
Dew Point: 57 F (14 C)
Relative Humidity: 87%
Pressure (altimeter): 30.06 in. Hg (1018 hPa)
ob: LFRV 162200Z AUTO VRB01KT 9999 FEW033 SCT042 BKN049 16/14 Q1018
cycle: 22

Station Type Date Time Source
LFRV TAF UTC NOAA

Error!

Example: see airport list